createdAt,value
2022-09-23T00:00:47.824Z,1.60
2022-09-23T00:03:53.338Z,1.63
2022-09-23T00:07:00.141Z,1.88
2022-09-23T00:10:04.334Z,1.90
2022-09-23T00:13:10.783Z,1.70
2022-09-23T00:16:19.545Z,1.90
2022-09-23T00:19:24.962Z,2.10
2022-09-23T00:22:29.050Z,2.45
2022-09-23T00:25:33.357Z,1.98
2022-09-23T00:28:38.544Z,2.00
2022-09-23T00:31:42.596Z,1.80
2022-09-23T00:34:48.331Z,1.90
2022-09-23T00:37:52.860Z,2.00
2022-09-23T00:40:58.417Z,2.08
2022-09-23T00:44:03.973Z,1.98
2022-09-23T00:47:16.282Z,2.08
2022-09-23T00:50:27.422Z,2.00
2022-09-23T00:53:31.745Z,1.85
2022-09-23T00:56:36.847Z,1.98
2022-09-23T00:59:41.339Z,2.10
2022-09-23T01:02:45.489Z,2.05
2022-09-23T01:05:52.079Z,1.98
2022-09-23T01:08:56.389Z,1.65
2022-09-23T01:12:09.119Z,1.75
2022-09-23T01:15:19.539Z,1.67
2022-09-23T01:18:35.122Z,1.80
2022-09-23T01:21:50.118Z,1.60
2022-09-23T01:25:13.440Z,1.77
2022-09-23T01:28:36.402Z,1.70
2022-09-23T01:31:45.373Z,1.83
2022-09-23T01:34:55.432Z,2.17
2022-09-23T01:38:10.332Z,1.92
2022-09-23T01:41:28.495Z,2.10
2022-09-23T01:44:39.370Z,2.00
2022-09-23T01:47:51.445Z,2.03
2022-09-23T01:51:01.014Z,2.17
2022-09-23T01:54:09.683Z,1.80
2022-09-23T01:57:19.982Z,1.92
2022-09-23T02:00:24.810Z,1.92
2022-09-23T02:03:35.130Z,2.35
2022-09-23T02:06:43.396Z,1.77
2022-09-23T02:09:53.929Z,1.88
2022-09-23T02:13:05.481Z,2.20
2022-09-23T02:16:22.923Z,1.83
2022-09-23T02:19:33.631Z,1.85
2022-09-23T02:22:42.526Z,1.60
2022-09-23T02:25:55.056Z,1.73
2022-09-23T02:29:09.233Z,2.03
2022-09-23T02:32:19.481Z,1.73
2022-09-23T02:35:33.364Z,2.22
2022-09-23T02:38:41.241Z,1.80
2022-09-23T02:41:53.585Z,1.60
2022-09-23T02:44:59.019Z,2.25
2022-09-23T02:48:08.340Z,2.25
2022-09-23T02:51:14.747Z,2.28
2022-09-23T02:54:21.597Z,1.90
2022-09-23T02:57:25.774Z,2.08
2022-09-23T03:00:44.216Z,1.83
2022-09-23T03:03:55.872Z,2.28
2022-09-23T03:07:06.302Z,1.90
2022-09-23T03:10:21.261Z,1.80
2022-09-23T03:13:34.315Z,2.33
2022-09-23T03:16:43.854Z,2.00
2022-09-23T03:19:51.342Z,1.70
2022-09-23T03:23:01.342Z,2.15
2022-09-23T03:26:11.905Z,1.60
2022-09-23T03:29:17.130Z,1.90
2022-09-23T03:32:26.807Z,1.65
2022-09-23T03:35:33.922Z,1.92
2022-09-23T03:38:44.390Z,1.90
2022-09-23T03:41:51.406Z,1.63
2022-09-23T03:44:56.652Z,2.08
2022-09-23T03:48:00.689Z,1.83
2022-09-23T03:51:20.697Z,1.77
2022-09-23T03:54:29.746Z,2.00
2022-09-23T03:57:33.920Z,1.80
2022-09-23T04:00:38.083Z,2.00
2022-09-23T04:03:42.577Z,2.10
2022-09-23T04:06:47.431Z,1.70
2022-09-23T04:09:53.084Z,1.90
2022-09-23T04:12:57.867Z,1.77
2022-09-23T04:16:02.431Z,2.17
2022-09-23T04:19:10.900Z,2.03
2022-09-23T04:22:16.181Z,2.10
2022-09-23T04:25:22.219Z,1.98
2022-09-23T04:28:37.811Z,1.90
2022-09-23T04:31:42.081Z,2.00
2022-09-23T04:34:46.219Z,1.98
2022-09-23T04:37:50.402Z,2.00
2022-09-23T04:40:56.844Z,2.15
2022-09-23T04:44:00.954Z,2.10
2022-09-23T04:47:05.549Z,2.30
2022-09-23T04:50:11.392Z,2.10
2022-09-23T04:53:17.262Z,2.22
2022-09-23T04:56:24.905Z,2.40
2022-09-23T04:59:30.233Z,2.30
2022-09-23T05:02:35.660Z,2.50
2022-09-23T05:05:39.966Z,2.13
2022-09-23T05:08:48.864Z,2.05
2022-09-23T05:11:54.342Z,2.38
2022-09-23T05:14:58.433Z,2.22
2022-09-23T05:18:03.114Z,2.40
2022-09-23T05:21:07.832Z,2.30
2022-09-23T05:24:13.534Z,2.47
2022-09-23T05:27:19.032Z,3.00
2022-09-23T05:30:23.253Z,2.90
2022-09-23T05:33:27.415Z,3.10
2022-09-23T05:36:37.930Z,5.00
2022-09-23T05:39:43.267Z,9.55
2022-09-23T05:42:49.215Z,9.13
2022-09-23T05:45:53.627Z,8.35
2022-09-23T05:49:02.552Z,8.70
2022-09-23T05:52:08.170Z,8.95
2022-09-23T05:55:13.021Z,7.82
2022-09-23T05:58:18.811Z,8.15
2022-09-23T06:01:25.198Z,6.60
2022-09-23T06:04:29.421Z,8.15
2022-09-23T06:07:33.758Z,7.75
2022-09-23T06:10:38.592Z,8.45
2022-09-23T06:13:44.378Z,7.53
2022-09-23T06:16:48.501Z,7.32
2022-09-23T06:19:52.614Z,5.72
2022-09-23T06:22:58.137Z,4.45
2022-09-23T06:26:02.440Z,4.65
2022-09-23T06:29:11.926Z,4.05
2022-09-23T06:32:16.319Z,3.47
2022-09-23T06:35:27.031Z,3.72
2022-09-23T06:38:34.214Z,2.80
2022-09-23T06:41:38.402Z,3.05
2022-09-23T06:44:50.870Z,4.53
2022-09-23T06:47:57.782Z,3.90
2022-09-23T06:51:04.213Z,3.55
2022-09-23T06:54:09.449Z,3.38
2022-09-23T06:57:14.339Z,2.90
2022-09-23T07:00:20.557Z,3.00
2022-09-23T07:03:24.648Z,3.65
2022-09-23T07:06:28.785Z,4.00
2022-09-23T07:09:33.257Z,3.28
2022-09-23T07:12:37.311Z,2.80
2022-09-23T07:15:43.015Z,2.95
2022-09-23T07:18:47.362Z,2.17
2022-09-23T07:21:51.798Z,2.20
2022-09-23T07:24:56.414Z,2.40
2022-09-23T07:28:00.933Z,1.92
2022-09-23T07:31:09.543Z,2.10
2022-09-23T07:34:14.668Z,1.92
2022-09-23T07:37:19.733Z,2.30
2022-09-23T07:40:23.953Z,1.88
2022-09-23T07:43:29.121Z,1.90
2022-09-23T07:46:37.082Z,1.92
2022-09-23T07:49:41.463Z,1.90
2022-09-23T07:52:45.851Z,1.85
2022-09-23T07:55:55.235Z,1.90
2022-09-23T07:59:04.015Z,1.83
2022-09-23T08:02:11.638Z,2.80
2022-09-23T08:05:16.436Z,2.75
2022-09-23T08:08:20.877Z,2.70
2022-09-23T08:11:26.037Z,2.55
2022-09-23T08:14:31.550Z,2.33
2022-09-23T08:17:37.091Z,2.30
2022-09-23T08:20:47.977Z,2.90
2022-09-23T08:23:52.674Z,2.88
2022-09-23T08:26:57.158Z,2.28
2022-09-23T08:30:01.270Z,2.40
2022-09-23T08:33:06.981Z,2.50
2022-09-23T08:36:12.577Z,2.28
2022-09-23T08:39:18.355Z,2.20
2022-09-23T08:42:29.482Z,2.28
2022-09-23T08:45:36.631Z,1.80
2022-09-23T08:48:45.232Z,1.88
2022-09-23T08:51:51.820Z,2.00
2022-09-23T08:54:56.328Z,1.67
2022-09-23T08:58:26.372Z,2.00
2022-09-23T09:01:39.215Z,1.60
2022-09-23T09:04:46.950Z,1.98
2022-09-23T09:07:51.290Z,2.13
2022-09-23T09:10:58.176Z,1.75
2022-09-23T09:14:13.822Z,1.60
2022-09-23T09:17:24.832Z,1.45
2022-09-23T09:20:40.229Z,1.83
2022-09-23T09:23:53.615Z,1.50
2022-09-23T09:26:58.082Z,1.88
2022-09-23T09:30:02.415Z,1.48
2022-09-23T09:33:15.419Z,1.85
2022-09-23T09:36:36.034Z,1.65
2022-09-23T09:39:40.830Z,1.70
2022-09-23T09:42:49.743Z,1.80
2022-09-23T09:46:05.169Z,1.88
2022-09-23T09:49:16.642Z,1.73
2022-09-23T09:52:29.843Z,1.55
2022-09-23T09:55:33.942Z,1.45
2022-09-23T09:58:49.008Z,1.73
2022-09-23T10:02:14.747Z,1.48
2022-09-23T10:05:28.320Z,2.00
2022-09-23T10:08:35.584Z,1.55
2022-09-23T10:11:40.803Z,1.70
2022-09-23T10:14:45.214Z,1.83
2022-09-23T10:17:52.477Z,1.73
2022-09-23T10:21:03.863Z,1.30
2022-09-23T10:24:10.173Z,1.65
2022-09-23T10:27:14.311Z,1.60
2022-09-23T10:30:24.740Z,1.60
2022-09-23T10:33:29.347Z,1.40
2022-09-23T10:36:34.305Z,1.13
2022-09-23T10:39:59.791Z,1.40
2022-09-23T10:43:47.815Z,1.70
2022-09-23T10:47:01.009Z,1.45
2022-09-23T10:50:16.911Z,1.40
2022-09-23T10:53:28.253Z,1.40
2022-09-23T10:56:38.506Z,1.48
2022-09-23T10:59:55.950Z,1.20
2022-09-23T11:03:43.268Z,1.23
2022-09-23T11:07:14.139Z,1.10
2022-09-23T11:11:11.637Z,1.20
2022-09-23T11:14:38.728Z,1.30
2022-09-23T11:18:51.706Z,1.33
2022-09-23T11:22:20.882Z,1.20
2022-09-23T11:25:36.264Z,1.20
2022-09-23T11:29:08.356Z,1.05
2022-09-23T11:32:47.172Z,1.15
2022-09-23T11:35:55.856Z,1.20
2022-09-23T11:39:04.245Z,1.30
2022-09-23T11:42:15.124Z,1.20
2022-09-23T11:45:23.428Z,1.08
2022-09-23T11:48:33.907Z,1.20
2022-09-23T11:51:45.822Z,2.00
2022-09-23T11:54:53.253Z,1.50
2022-09-23T11:58:01.896Z,1.35
2022-09-23T12:01:10.559Z,1.13
2022-09-23T12:04:23.448Z,1.20
2022-09-23T12:07:33.914Z,1.45
2022-09-23T12:10:46.039Z,1.10
2022-09-23T12:13:55.977Z,1.20
2022-09-23T12:17:16.451Z,1.05
2022-09-23T12:20:45.624Z,1.13
2022-09-23T12:24:19.011Z,1.52
2022-09-23T12:27:37.283Z,1.30
2022-09-23T12:30:42.503Z,1.00
2022-09-23T12:33:51.777Z,1.20
2022-09-23T12:37:04.071Z,1.10
2022-09-23T12:40:19.164Z,1.38
2022-09-23T12:43:30.970Z,1.40
2022-09-23T12:46:35.964Z,1.17
2022-09-23T12:49:40.683Z,1.20
2022-09-23T12:52:46.753Z,1.20
2022-09-23T12:55:53.052Z,1.40
2022-09-23T12:59:30.582Z,1.02
2022-09-23T13:02:39.067Z,1.20
2022-09-23T13:06:06.872Z,1.10
2022-09-23T13:09:20.459Z,1.10
2022-09-23T13:12:31.079Z,1.00
2022-09-23T13:15:36.891Z,1.27
2022-09-23T13:18:59.862Z,1.23
2022-09-23T13:22:11.173Z,1.50
2022-09-23T13:25:22.182Z,1.00
2022-09-23T13:28:34.537Z,1.10
2022-09-23T13:31:39.392Z,1.20
2022-09-23T13:34:46.701Z,1.13
2022-09-23T13:37:51.453Z,1.40
2022-09-23T13:41:01.802Z,1.40
2022-09-23T13:44:06.619Z,1.30
2022-09-23T13:47:14.004Z,1.48
2022-09-23T13:50:20.834Z,1.60
2022-09-23T13:53:27.770Z,1.45
2022-09-23T13:56:36.557Z,1.50
2022-09-23T13:59:43.537Z,1.55
2022-09-23T14:02:47.967Z,1.80
2022-09-23T14:05:52.792Z,1.50
2022-09-23T14:08:58.031Z,1.33
2022-09-23T14:12:04.118Z,1.40
2022-09-23T14:15:16.314Z,1.30
2022-09-23T14:18:35.971Z,1.58
2022-09-23T14:21:41.491Z,1.40
2022-09-23T14:24:45.968Z,1.52
2022-09-23T14:27:51.454Z,1.10
2022-09-23T14:30:58.430Z,1.20
2022-09-23T14:34:02.879Z,1.80
2022-09-23T14:37:34.903Z,1.30
2022-09-23T14:40:51.091Z,1.20
2022-09-23T14:44:00.153Z,1.50
2022-09-23T14:47:07.043Z,1.33
2022-09-23T14:50:40.750Z,1.40
2022-09-23T14:53:46.295Z,1.42
2022-09-23T14:56:50.568Z,1.33
2022-09-23T15:00:00.498Z,1.63
2022-09-23T15:03:12.745Z,1.40
2022-09-23T15:06:17.404Z,1.63
2022-09-23T15:09:24.843Z,1.00
2022-09-23T15:12:29.352Z,1.08
2022-09-23T15:15:35.722Z,1.63
2022-09-23T15:18:41.162Z,1.48
2022-09-23T15:21:47.019Z,1.58
2022-09-23T15:24:53.702Z,1.25
2022-09-23T15:28:02.496Z,1.23
2022-09-23T15:31:09.233Z,1.30
2022-09-23T15:34:13.624Z,1.35
2022-09-23T15:37:17.993Z,1.23
2022-09-23T15:40:25.018Z,1.30
2022-09-23T15:43:29.207Z,1.20
2022-09-23T15:46:34.723Z,1.27
2022-09-23T15:49:40.379Z,1.08
2022-09-23T15:52:45.189Z,1.40
2022-09-23T15:55:51.113Z,1.30
2022-09-23T15:58:55.229Z,1.55
2022-09-23T16:02:04.240Z,1.38
2022-09-23T16:05:18.782Z,1.20
2022-09-23T16:08:23.977Z,1.17
2022-09-23T16:11:31.783Z,1.50
2022-09-23T16:14:36.023Z,1.65
2022-09-23T16:17:42.252Z,1.48
2022-09-23T16:20:47.731Z,1.27
2022-09-23T16:23:53.388Z,1.50
2022-09-23T16:27:00.718Z,1.52
2022-09-23T16:30:06.271Z,1.40
2022-09-23T16:33:18.382Z,1.67
2022-09-23T16:36:27.029Z,1.73
2022-09-23T16:39:31.211Z,1.40
2022-09-23T16:42:35.339Z,1.60
2022-09-23T16:45:40.240Z,2.05
2022-09-23T16:48:51.566Z,1.50
2022-09-23T16:51:56.858Z,1.90
2022-09-23T16:55:01.239Z,2.35
2022-09-23T16:58:05.767Z,1.70
2022-09-23T17:01:32.941Z,2.22
2022-09-23T17:04:38.699Z,1.98
2022-09-23T17:07:42.862Z,1.85
2022-09-23T17:10:56.597Z,2.30
2022-09-23T17:14:01.261Z,2.15
2022-09-23T17:17:06.679Z,2.28
2022-09-23T17:20:14.427Z,2.47
2022-09-23T17:23:19.472Z,2.58
2022-09-23T17:26:25.443Z,2.50
2022-09-23T17:29:30.601Z,2.20
2022-09-23T17:32:34.877Z,2.10
2022-09-23T17:35:42.219Z,2.20
2022-09-23T17:38:48.217Z,2.30
2022-09-23T17:41:58.508Z,2.30
2022-09-23T17:45:02.567Z,2.00
2022-09-23T17:48:06.987Z,2.17
2022-09-23T17:51:15.483Z,1.73
2022-09-23T17:54:19.686Z,2.60
2022-09-23T17:57:23.952Z,2.67
2022-09-23T18:00:28.457Z,2.33
2022-09-23T18:03:33.358Z,2.60
2022-09-23T18:06:39.305Z,2.75
2022-09-23T18:09:43.335Z,2.65
2022-09-23T18:12:47.398Z,2.30
2022-09-23T18:15:51.744Z,2.88
2022-09-23T18:18:57.980Z,2.90
2022-09-23T18:22:03.927Z,3.40
2022-09-23T18:25:28.462Z,2.90
2022-09-23T18:28:34.936Z,2.80
2022-09-23T18:31:41.233Z,2.83
2022-09-23T18:34:46.244Z,3.10
2022-09-23T18:37:51.752Z,2.97
2022-09-23T18:40:57.984Z,2.92
2022-09-23T18:44:03.380Z,3.00
2022-09-23T18:47:07.854Z,4.38
2022-09-23T18:50:31.071Z,5.13
2022-09-23T18:53:37.287Z,3.33
2022-09-23T18:56:43.184Z,3.40
2022-09-23T18:59:47.348Z,2.92
2022-09-23T19:02:52.664Z,3.13
2022-09-23T19:06:03.434Z,3.45
2022-09-23T19:09:09.413Z,3.00
2022-09-23T19:12:13.971Z,2.70
2022-09-23T19:15:18.201Z,3.15
2022-09-23T19:18:22.662Z,3.38
2022-09-23T19:21:28.302Z,3.10
2022-09-23T19:24:34.138Z,3.20
2022-09-23T19:27:39.311Z,3.25
2022-09-23T19:30:43.450Z,3.22
2022-09-23T19:33:56.641Z,3.25
2022-09-23T19:37:01.453Z,3.50
2022-09-23T19:40:09.046Z,3.33
2022-09-23T19:43:14.374Z,3.42
2022-09-23T19:46:19.463Z,3.63
2022-09-23T19:49:24.605Z,3.00
2022-09-23T19:52:29.101Z,3.17
2022-09-23T19:55:36.458Z,3.30
2022-09-23T19:58:41.031Z,3.60
2022-09-23T20:01:45.183Z,3.40
2022-09-23T20:04:51.402Z,3.85
2022-09-23T20:07:55.575Z,3.47
2022-09-23T20:11:01.303Z,3.67
2022-09-23T20:14:06.599Z,3.60
2022-09-23T20:17:13.614Z,3.42
2022-09-23T20:20:18.114Z,3.60
2022-09-23T20:23:22.612Z,3.40
2022-09-23T20:26:45.503Z,4.07
2022-09-23T20:29:50.122Z,3.30
2022-09-23T20:32:54.274Z,3.78
2022-09-23T20:36:00.910Z,3.90
2022-09-23T20:39:06.897Z,4.00
2022-09-23T20:42:13.541Z,3.72
2022-09-23T20:45:17.847Z,3.13
2022-09-23T20:48:22.233Z,3.58
2022-09-23T20:51:26.759Z,3.53
2022-09-23T20:54:31.702Z,3.45
2022-09-23T20:57:37.191Z,3.28
2022-09-23T21:00:42.204Z,3.20
2022-09-23T21:03:48.130Z,3.20
2022-09-23T21:06:52.854Z,3.15
2022-09-23T21:09:57.323Z,3.22
2022-09-23T21:13:04.235Z,3.13
2022-09-23T21:16:11.934Z,3.13
2022-09-23T21:19:16.111Z,3.38
2022-09-23T21:22:20.620Z,3.30
2022-09-23T21:25:28.051Z,3.42
2022-09-23T21:28:36.263Z,3.28
2022-09-23T21:31:40.457Z,2.97
2022-09-23T21:34:45.025Z,3.30
2022-09-23T21:37:49.774Z,3.10
2022-09-23T21:40:59.433Z,3.05
2022-09-23T21:44:06.640Z,3.15
2022-09-23T21:47:10.972Z,3.05
2022-09-23T21:50:15.439Z,2.95
2022-09-23T21:53:19.976Z,3.28
2022-09-23T21:56:26.221Z,3.30
2022-09-23T21:59:31.649Z,3.20
2022-09-23T22:02:39.804Z,3.33
2022-09-23T22:05:44.361Z,3.40
2022-09-23T22:08:50.542Z,3.42
2022-09-23T22:12:08.655Z,3.38
2022-09-23T22:15:14.654Z,3.50
2022-09-23T22:18:20.080Z,3.20
2022-09-23T22:21:24.340Z,3.45
2022-09-23T22:24:28.580Z,3.50
2022-09-23T22:27:53.356Z,3.70
2022-09-23T22:31:18.349Z,3.38
2022-09-23T22:34:47.847Z,4.32
2022-09-23T22:37:48.642Z,4.43
2022-09-23T22:40:53.345Z,3.75
2022-09-23T22:43:58.505Z,3.70
2022-09-23T22:47:04.176Z,4.55
2022-09-23T22:50:11.540Z,3.90
2022-09-23T22:53:17.377Z,4.35
2022-09-23T22:56:22.619Z,4.00
2022-09-23T22:59:26.658Z,3.90
2022-09-23T23:02:33.118Z,3.90
2022-09-23T23:05:37.680Z,3.60
2022-09-23T23:08:41.815Z,3.92
2022-09-23T23:11:47.255Z,5.55
2022-09-23T23:14:51.716Z,5.10
2022-09-23T23:17:57.314Z,4.90
2022-09-23T23:21:08.775Z,4.63
2022-09-23T23:24:18.190Z,4.78
2022-09-23T23:27:23.635Z,5.03
2022-09-23T23:30:28.241Z,4.70
2022-09-23T23:33:33.871Z,4.50
2022-09-23T23:36:38.218Z,4.80
2022-09-23T23:39:42.723Z,4.30
2022-09-23T23:42:46.982Z,4.72
2022-09-23T23:45:52.529Z,4.75
2022-09-23T23:48:58.715Z,4.35
2022-09-23T23:52:03.415Z,4.60
2022-09-23T23:55:08.326Z,4.10
2022-09-23T23:58:13.358Z,4.18
